Terminal Aerodrome Forecast
Issued by NWS

Home | Current Version | Previous Version | Text Only | Print | Product List | Glossary On
Versions: 1 2 3 4 5 6 7 8 9 10 11 12 13 14 15 16 17 18
090
FTUS43 KSGF 281720
TAFJLN
TAF
KJLN 281720Z 2818/2918 28008KT P6SM SCT250
     FM282300 35005KT P6SM SCT250
     FM290700 05005KT P6SM BKN250
     FM291300 09012KT P6SM BKN100 OVC200=

USA.gov is the U.S. government's official web portal to all federal, state and local government web resources and services.